sensor_id;sensor_type;location;lat;lon;timestamp;pressure;altitude;pressure_sealevel;temperature;humidity
25498;BME280;13406;53.380;7.226;2023-07-24T00:00:09;99885.00;;;16.63;100.00
25498;BME280;13406;53.380;7.226;2023-07-24T00:02:34;99919.81;;;16.81;100.00
25498;BME280;13406;53.380;7.226;2023-07-24T00:05:00;99958.38;;;16.99;100.00
25498;BME280;13406;53.380;7.226;2023-07-24T00:07:25;99964.84;;;16.98;100.00
25498;BME280;13406;53.380;7.226;2023-07-24T00:09:50;99969.19;;;16.99;100.00
25498;BME280;13406;53.380;7.226;2023-07-24T00:12:16;99943.69;;;16.89;100.00
25498;BME280;13406;53.380;7.226;2023-07-24T00:14:41;99942.03;;;16.88;100.00
25498;BME280;13406;53.380;7.226;2023-07-24T00:17:07;99950.78;;;17.01;100.00
25498;BME280;13406;53.380;7.226;2023-07-24T00:19:32;99956.19;;;16.96;100.00
25498;BME280;13406;53.380;7.226;2023-07-24T00:21:58;99919.97;;;16.69;100.00
25498;BME280;13406;53.380;7.226;2023-07-24T00:24:23;99936.06;;;16.81;100.00
25498;BME280;13406;53.380;7.226;2023-07-24T00:26:48;99935.13;;;16.70;100.00
25498;BME280;13406;53.380;7.226;2023-07-24T00:29:14;99960.22;;;16.93;100.00
25498;BME280;13406;53.380;7.226;2023-07-24T00:31:39;99949.13;;;16.94;100.00
25498;BME280;13406;53.380;7.226;2023-07-24T00:34:04;99884.66;;;16.54;100.00
25498;BME280;13406;53.380;7.226;2023-07-24T00:36:30;99931.41;;;16.77;100.00
25498;BME280;13406;53.380;7.226;2023-07-24T00:38:55;99952.59;;;16.85;100.00
25498;BME280;13406;53.380;7.226;2023-07-24T00:41:21;99965.13;;;16.96;100.00
25498;BME280;13406;53.380;7.226;2023-07-24T00:43:46;99959.75;;;17.01;100.00
25498;BME280;13406;53.380;7.226;2023-07-24T00:46:12;99900.66;;;16.56;100.00
25498;BME280;13406;53.380;7.226;2023-07-24T00:48:39;99941.75;;;16.85;100.00
25498;BME280;13406;53.380;7.226;2023-07-24T00:51:05;99946.56;;;16.78;100.00
25498;BME280;13406;53.380;7.226;2023-07-24T00:53:30;99968.31;;;16.88;100.00
25498;BME280;13406;53.380;7.226;2023-07-24T00:55:56;99963.16;;;16.86;100.00
25498;BME280;13406;53.380;7.226;2023-07-24T00:58:22;99975.66;;;16.92;100.00
25498;BME280;13406;53.380;7.226;2023-07-24T01:00:47;99930.81;;;16.69;100.00
25498;BME280;13406;53.380;7.226;2023-07-24T01:03:13;99964.72;;;16.77;100.00
25498;BME280;13406;53.380;7.226;2023-07-24T01:05:39;99968.25;;;16.78;100.00
25498;BME280;13406;53.380;7.226;2023-07-24T01:08:06;99965.28;;;16.79;100.00
25498;BME280;13406;53.380;7.226;2023-07-24T01:10:31;99955.38;;;16.58;100.00
25498;BME280;13406;53.380;7.226;2023-07-24T01:13:04;99955.78;;;16.77;100.00
25498;BME280;13406;53.380;7.226;2023-07-24T01:15:38;99976.94;;;16.80;100.00
25498;BME280;13406;53.380;7.226;2023-07-24T01:18:09;99945.03;;;16.49;100.00
25498;BME280;13406;53.380;7.226;2023-07-24T01:20:43;99985.81;;;16.75;100.00
25498;BME280;13406;53.380;7.226;2023-07-24T01:23:23;99993.94;;;16.75;100.00
25498;BME280;13406;53.380;7.226;2023-07-24T01:28:19;99954.69;;;16.40;100.00
25498;BME280;13406;53.380;7.226;2023-07-24T01:30:44;99967.81;;;16.59;100.00
25498;BME280;13406;53.380;7.226;2023-07-24T01:33:10;99996.56;;;16.65;100.00
25498;BME280;13406;53.380;7.226;2023-07-24T01:35:36;99969.91;;;16.52;100.00
25498;BME280;13406;53.380;7.226;2023-07-24T01:38:03;100022.72;;;16.81;100.00
25498;BME280;13406;53.380;7.226;2023-07-24T01:40:29;99993.47;;;16.51;100.00
25498;BME280;13406;53.380;7.226;2023-07-24T01:42:56;99984.28;;;16.52;100.00
25498;BME280;13406;53.380;7.226;2023-07-24T01:45:24;100011.78;;;16.71;100.00
25498;BME280;13406;53.380;7.226;2023-07-24T01:47:50;100017.94;;;16.61;100.00
25498;BME280;13406;53.380;7.226;2023-07-24T01:50:15;100024.16;;;16.62;100.00
25498;BME280;13406;53.380;7.226;2023-07-24T01:52:41;100040.41;;;16.62;100.00
25498;BME280;13406;53.380;7.226;2023-07-24T01:55:07;99989.72;;;16.25;100.00
25498;BME280;13406;53.380;7.226;2023-07-24T01:57:32;100004.81;;;16.16;100.00
25498;BME280;13406;53.380;7.226;2023-07-24T01:59:57;100055.22;;;16.54;100.00
25498;BME280;13406;53.380;7.226;2023-07-24T02:02:23;100048.06;;;16.43;100.00
25498;BME280;13406;53.380;7.226;2023-07-24T02:04:48;100049.97;;;16.42;100.00
25498;BME280;13406;53.380;7.226;2023-07-24T02:07:14;100075.53;;;16.57;100.00
25498;BME280;13406;53.380;7.226;2023-07-24T02:09:39;100082.91;;;16.61;100.00
25498;BME280;13406;53.380;7.226;2023-07-24T02:12:05;100073.47;;;16.37;100.00
25498;BME280;13406;53.380;7.226;2023-07-24T02:14:31;100082.97;;;16.39;100.00
25498;BME280;13406;53.380;7.226;2023-07-24T02:16:56;100096.78;;;16.43;100.00
25498;BME280;13406;53.380;7.226;2023-07-24T02:19:22;100070.09;;;16.24;100.00
25498;BME280;13406;53.380;7.226;2023-07-24T02:21:47;100104.66;;;16.44;100.00
25498;BME280;13406;53.380;7.226;2023-07-24T02:24:12;100114.06;;;16.37;100.00
25498;BME280;13406;53.380;7.226;2023-07-24T02:26:38;100065.22;;;15.99;100.00
25498;BME280;13406;53.380;7.226;2023-07-24T02:29:03;100095.63;;;16.34;100.00
25498;BME280;13406;53.380;7.226;2023-07-24T02:31:29;100135.97;;;16.35;100.00
25498;BME280;13406;53.380;7.226;2023-07-24T02:33:54;100133.19;;;16.52;100.00
25498;BME280;13406;53.380;7.226;2023-07-24T02:36:20;100131.50;;;16.24;100.00
25498;BME280;13406;53.380;7.226;2023-07-24T02:38:45;100152.66;;;16.27;100.00
25498;BME280;13406;53.380;7.226;2023-07-24T02:41:10;100175.50;;;16.36;100.00
25498;BME280;13406;53.380;7.226;2023-07-24T02:43:36;100181.06;;;16.52;100.00
25498;BME280;13406;53.380;7.226;2023-07-24T02:46:02;100169.78;;;16.33;100.00
25498;BME280;13406;53.380;7.226;2023-07-24T02:48:28;100142.84;;;16.21;100.00
25498;BME280;13406;53.380;7.226;2023-07-24T02:50:53;100197.13;;;16.36;100.00
25498;BME280;13406;53.380;7.226;2023-07-24T02:53:19;100205.91;;;16.43;100.00
25498;BME280;13406;53.380;7.226;2023-07-24T02:55:44;100208.59;;;16.43;100.00
25498;BME280;13406;53.380;7.226;2023-07-24T02:58:13;100233.28;;;16.47;100.00
25498;BME280;13406;53.380;7.226;2023-07-24T03:00:39;100227.28;;;16.45;100.00
25498;BME280;13406;53.380;7.226;2023-07-24T03:03:05;100236.97;;;16.63;100.00
25498;BME280;13406;53.380;7.226;2023-07-24T03:05:31;100232.25;;;16.53;100.00
25498;BME280;13406;53.380;7.226;2023-07-24T03:07:57;100240.75;;;16.40;100.00
25498;BME280;13406;53.380;7.226;2023-07-24T03:10:23;100245.06;;;16.58;100.00
25498;BME280;13406;53.380;7.226;2023-07-24T03:12:48;100223.09;;;16.32;100.00
25498;BME280;13406;53.380;7.226;2023-07-24T03:15:14;100191.84;;;16.02;100.00
25498;BME280;13406;53.380;7.226;2023-07-24T03:17:39;100249.22;;;16.43;100.00
25498;BME280;13406;53.380;7.226;2023-07-24T03:20:09;100275.06;;;16.56;100.00
25498;BME280;13406;53.380;7.226;2023-07-24T03:22:35;100192.69;;;16.03;100.00
25498;BME280;13406;53.380;7.226;2023-07-24T03:25:01;100273.63;;;16.48;100.00
25498;BME280;13406;53.380;7.226;2023-07-24T03:27:26;100291.31;;;16.56;100.00
25498;BME280;13406;53.380;7.226;2023-07-24T03:29:52;100290.19;;;16.52;100.00
25498;BME280;13406;53.380;7.226;2023-07-24T03:32:17;100284.31;;;16.60;100.00
25498;BME280;13406;53.380;7.226;2023-07-24T03:34:42;100307.06;;;16.59;100.00
25498;BME280;13406;53.380;7.226;2023-07-24T03:37:08;100262.66;;;16.38;100.00
25498;BME280;13406;53.380;7.226;2023-07-24T03:39:33;100301.91;;;16.58;100.00
25498;BME280;13406;53.380;7.226;2023-07-24T03:41:59;100294.16;;;16.44;100.00
25498;BME280;13406;53.380;7.226;2023-07-24T03:44:24;100312.47;;;16.59;100.00
25498;BME280;13406;53.380;7.226;2023-07-24T03:46:50;100279.22;;;16.42;100.00
25498;BME280;13406;53.380;7.226;2023-07-24T03:49:15;100291.13;;;16.41;100.00
25498;BME280;13406;53.380;7.226;2023-07-24T03:51:40;100192.06;;;15.79;100.00
25498;BME280;13406;53.380;7.226;2023-07-24T03:54:06;100297.97;;;16.48;100.00
25498;BME280;13406;53.380;7.226;2023-07-24T03:56:31;100263.34;;;16.28;100.00
25498;BME280;13406;53.380;7.226;2023-07-24T03:58:56;100328.47;;;16.61;100.00
25498;BME280;13406;53.380;7.226;2023-07-24T04:01:22;100276.06;;;16.28;100.00
25498;BME280;13406;53.380;7.226;2023-07-24T04:03:47;100322.91;;;16.50;100.00
25498;BME280;13406;53.380;7.226;2023-07-24T04:06:13;100307.69;;;16.44;100.00
25498;BME280;13406;53.380;7.226;2023-07-24T04:08:38;100339.34;;;16.66;100.00
25498;BME280;13406;53.380;7.226;2023-07-24T04:11:04;100340.63;;;16.58;100.00
25498;BME280;13406;53.380;7.226;2023-07-24T04:13:30;100329.78;;;16.58;100.00
25498;BME280;13406;53.380;7.226;2023-07-24T04:15:56;100358.47;;;16.76;100.00
25498;BME280;13406;53.380;7.226;2023-07-24T04:18:22;100315.06;;;16.49;100.00
25498;BME280;13406;53.380;7.226;2023-07-24T04:20:48;100341.56;;;16.47;100.00
25498;BME280;13406;53.380;7.226;2023-07-24T04:23:13;100355.88;;;16.64;100.00
25498;BME280;13406;53.380;7.226;2023-07-24T04:25:38;100362.59;;;16.62;100.00
25498;BME280;13406;53.380;7.226;2023-07-24T04:28:04;100342.19;;;16.54;100.00
25498;BME280;13406;53.380;7.226;2023-07-24T04:30:29;100354.28;;;16.68;100.00
25498;BME280;13406;53.380;7.226;2023-07-24T04:32:55;100358.66;;;16.69;100.00
25498;BME280;13406;53.380;7.226;2023-07-24T04:35:20;100344.38;;;16.57;100.00
25498;BME280;13406;53.380;7.226;2023-07-24T04:37:45;100321.16;;;16.61;100.00
25498;BME280;13406;53.380;7.226;2023-07-24T04:40:11;100305.16;;;16.38;100.00
25498;BME280;13406;53.380;7.226;2023-07-24T04:42:37;100316.91;;;16.48;100.00
25498;BME280;13406;53.380;7.226;2023-07-24T04:45:03;100332.63;;;16.68;100.00
25498;BME280;13406;53.380;7.226;2023-07-24T04:47:28;100338.91;;;16.74;100.00
25498;BME280;13406;53.380;7.226;2023-07-24T04:49:54;100294.88;;;16.40;100.00
25498;BME280;13406;53.380;7.226;2023-07-24T04:52:20;100331.88;;;16.73;100.00
25498;BME280;13406;53.380;7.226;2023-07-24T04:54:46;100297.22;;;16.53;100.00
25498;BME280;13406;53.380;7.226;2023-07-24T04:57:11;100340.81;;;16.73;100.00
25498;BME280;13406;53.380;7.226;2023-07-24T04:59:37;100349.28;;;16.77;100.00
25498;BME280;13406;53.380;7.226;2023-07-24T05:02:02;100346.66;;;16.65;100.00
25498;BME280;13406;53.380;7.226;2023-07-24T05:04:28;100362.97;;;16.70;100.00
25498;BME280;13406;53.380;7.226;2023-07-24T05:06:53;100309.25;;;16.40;100.00
25498;BME280;13406;53.380;7.226;2023-07-24T05:09:18;100296.13;;;16.49;100.00
25498;BME280;13406;53.380;7.226;2023-07-24T05:11:44;100323.47;;;16.75;100.00
25498;BME280;13406;53.380;7.226;2023-07-24T05:14:10;100333.50;;;16.74;100.00
25498;BME280;13406;53.380;7.226;2023-07-24T05:16:35;100337.78;;;16.70;100.00
25498;BME280;13406;53.380;7.226;2023-07-24T05:19:01;100305.44;;;16.58;100.00
25498;BME280;13406;53.380;7.226;2023-07-24T05:21:26;100329.59;;;16.65;100.00
25498;BME280;13406;53.380;7.226;2023-07-24T05:23:52;100342.44;;;16.75;100.00
25498;BME280;13406;53.380;7.226;2023-07-24T05:26:17;100336.72;;;16.71;100.00
25498;BME280;13406;53.380;7.226;2023-07-24T05:28:43;100331.59;;;16.75;100.00
25498;BME280;13406;53.380;7.226;2023-07-24T05:31:09;100342.72;;;16.73;100.00
25498;BME280;13406;53.380;7.226;2023-07-24T05:33:34;100343.94;;;16.82;100.00
25498;BME280;13406;53.380;7.226;2023-07-24T05:36:03;100341.72;;;16.79;100.00
25498;BME280;13406;53.380;7.226;2023-07-24T05:38:29;100341.16;;;16.77;100.00
25498;BME280;13406;53.380;7.226;2023-07-24T05:40:59;100314.78;;;16.50;100.00
25498;BME280;13406;53.380;7.226;2023-07-24T05:43:26;100329.16;;;16.73;100.00
25498;BME280;13406;53.380;7.226;2023-07-24T05:45:52;100351.31;;;16.87;100.00
25498;BME280;13406;53.380;7.226;2023-07-24T05:48:18;100359.75;;;16.90;100.00
25498;BME280;13406;53.380;7.226;2023-07-24T05:50:43;100334.72;;;16.83;100.00
25498;BME280;13406;53.380;7.226;2023-07-24T05:53:08;100354.91;;;16.92;100.00
25498;BME280;13406;53.380;7.226;2023-07-24T05:55:34;100338.59;;;16.87;100.00
25498;BME280;13406;53.380;7.226;2023-07-24T05:57:59;100350.31;;;16.93;100.00
25498;BME280;13406;53.380;7.226;2023-07-24T06:00:25;100339.97;;;16.90;100.00
25498;BME280;13406;53.380;7.226;2023-07-24T06:02:57;100349.66;;;16.86;100.00
25498;BME280;13406;53.380;7.226;2023-07-24T06:05:39;100293.50;;;16.37;100.00
25498;BME280;13406;53.380;7.226;2023-07-24T06:08:05;100318.66;;;16.77;100.00
25498;BME280;13406;53.380;7.226;2023-07-24T06:10:30;100341.97;;;17.00;100.00
25498;BME280;13406;53.380;7.226;2023-07-24T06:12:55;100322.31;;;16.87;100.00
25498;BME280;13406;53.380;7.226;2023-07-24T06:15:21;100324.91;;;16.99;100.00
25498;BME280;13406;53.380;7.226;2023-07-24T06:17:46;100349.72;;;17.13;100.00
25498;BME280;13406;53.380;7.226;2023-07-24T06:20:12;100344.69;;;17.00;100.00
25498;BME280;13406;53.380;7.226;2023-07-24T06:22:37;100342.09;;;17.10;100.00
25498;BME280;13406;53.380;7.226;2023-07-24T06:25:03;100340.88;;;17.01;100.00
25498;BME280;13406;53.380;7.226;2023-07-24T06:27:28;100338.38;;;17.16;100.00
25498;BME280;13406;53.380;7.226;2023-07-24T06:29:54;100303.81;;;16.79;100.00
25498;BME280;13406;53.380;7.226;2023-07-24T06:32:19;100347.91;;;16.97;100.00
25498;BME280;13406;53.380;7.226;2023-07-24T06:34:45;100329.75;;;16.97;100.00
25498;BME280;13406;53.380;7.226;2023-07-24T06:37:10;100346.69;;;17.09;100.00
25498;BME280;13406;53.380;7.226;2023-07-24T06:39:35;100345.31;;;17.07;100.00
25498;BME280;13406;53.380;7.226;2023-07-24T06:42:01;100293.31;;;16.66;100.00
25498;BME280;13406;53.380;7.226;2023-07-24T06:44:26;100336.56;;;17.00;100.00
25498;BME280;13406;53.380;7.226;2023-07-24T06:46:52;100336.56;;;17.00;100.00
25498;BME280;13406;53.380;7.226;2023-07-24T06:49:17;100344.69;;;17.00;100.00
25498;BME280;13406;53.380;7.226;2023-07-24T06:51:43;100339.91;;;17.07;100.00
25498;BME280;13406;53.380;7.226;2023-07-24T06:54:08;100330.69;;;17.08;100.00
25498;BME280;13406;53.380;7.226;2023-07-24T06:56:33;100337.06;;;17.24;100.00
25498;BME280;13406;53.380;7.226;2023-07-24T06:59:08;100332.84;;;17.33;100.00
25498;BME280;13406;53.380;7.226;2023-07-24T07:01:33;100299.31;;;17.39;100.00
25498;BME280;13406;53.380;7.226;2023-07-24T07:03:59;100329.31;;;17.65;100.00
25498;BME280;13406;53.380;7.226;2023-07-24T07:06:24;100330.75;;;17.72;100.00
25498;BME280;13406;53.380;7.226;2023-07-24T07:08:50;100319.00;;;17.89;100.00
25498;BME280;13406;53.380;7.226;2023-07-24T07:11:15;100296.88;;;17.75;100.00
25498;BME280;13406;53.380;7.226;2023-07-24T07:13:40;100311.81;;;17.77;100.00
25498;BME280;13406;53.380;7.226;2023-07-24T07:16:06;100291.69;;;17.73;100.00
25498;BME280;13406;53.380;7.226;2023-07-24T07:18:31;100241.91;;;17.52;100.00
25498;BME280;13406;53.380;7.226;2023-07-24T07:20:57;100284.09;;;17.70;100.00
25498;BME280;13406;53.380;7.226;2023-07-24T07:23:23;100274.22;;;17.86;100.00
25498;BME280;13406;53.380;7.226;2023-07-24T07:25:50;100197.81;;;17.25;100.00
25498;BME280;13406;53.380;7.226;2023-07-24T07:28:16;100260.59;;;17.81;100.00
25498;BME280;13406;53.380;7.226;2023-07-24T07:30:42;100231.38;;;17.56;100.00
25498;BME280;13406;53.380;7.226;2023-07-24T07:33:08;100217.75;;;17.46;100.00
25498;BME280;13406;53.380;7.226;2023-07-24T07:35:34;100247.25;;;17.74;100.00
25498;BME280;13406;53.380;7.226;2023-07-24T07:38:01;100238.50;;;17.67;100.00
25498;BME280;13406;53.380;7.226;2023-07-24T07:40:26;100223.69;;;17.43;100.00
25498;BME280;13406;53.380;7.226;2023-07-24T07:42:56;100226.50;;;17.58;100.00
25498;BME280;13406;53.380;7.226;2023-07-24T07:45:22;100222.78;;;17.69;100.00
25498;BME280;13406;53.380;7.226;2023-07-24T07:47:48;100225.78;;;17.73;100.00
25498;BME280;13406;53.380;7.226;2023-07-24T07:50:13;100216.28;;;17.70;100.00
25498;BME280;13406;53.380;7.226;2023-07-24T07:52:39;100226.47;;;17.90;100.00
25498;BME280;13406;53.380;7.226;2023-07-24T07:55:05;100171.78;;;17.66;100.00
25498;BME280;13406;53.380;7.226;2023-07-24T07:57:37;100211.69;;;18.08;100.00
25498;BME280;13406;53.380;7.226;2023-07-24T08:00:03;100164.06;;;17.85;100.00
25498;BME280;13406;53.380;7.226;2023-07-24T08:02:29;100200.28;;;18.11;100.00
25498;BME280;13406;53.380;7.226;2023-07-24T08:04:55;100157.88;;;17.95;100.00
25498;BME280;13406;53.380;7.226;2023-07-24T08:07:21;100176.47;;;18.23;100.00
25498;BME280;13406;53.380;7.226;2023-07-24T08:09:46;100151.50;;;18.26;100.00
25498;BME280;13406;53.380;7.226;2023-07-24T08:12:11;100150.75;;;18.57;100.00
25498;BME280;13406;53.380;7.226;2023-07-24T08:14:37;100141.25;;;18.64;100.00
25498;BME280;13406;53.380;7.226;2023-07-24T08:17:03;100130.13;;;18.71;100.00
25498;BME280;13406;53.380;7.226;2023-07-24T08:19:28;100120.63;;;18.58;100.00
25498;BME280;13406;53.380;7.226;2023-07-24T08:21:54;100108.13;;;18.52;100.00
25498;BME280;13406;53.380;7.226;2023-07-24T08:24:20;100082.31;;;18.44;100.00
25498;BME280;13406;53.380;7.226;2023-07-24T08:26:45;100093.47;;;18.63;100.00
25498;BME280;13406;53.380;7.226;2023-07-24T08:29:10;100073.31;;;18.28;100.00
25498;BME280;13406;53.380;7.226;2023-07-24T08:31:36;100082.03;;;18.46;100.00
25498;BME280;13406;53.380;7.226;2023-07-24T08:34:02;100091.25;;;18.40;100.00
25498;BME280;13406;53.380;7.226;2023-07-24T08:36:27;99999.94;;;17.82;100.00
25498;BME280;13406;53.380;7.226;2023-07-24T08:38:54;100077.69;;;18.35;100.00
25498;BME280;13406;53.380;7.226;2023-07-24T08:41:19;100082.56;;;18.38;100.00
25498;BME280;13406;53.380;7.226;2023-07-24T08:43:45;100078.75;;;18.39;100.00
25498;BME280;13406;53.380;7.226;2023-07-24T08:46:11;100069.00;;;18.38;100.00
25498;BME280;13406;53.380;7.226;2023-07-24T08:48:39;99999.44;;;18.01;100.00
25498;BME280;13406;53.380;7.226;2023-07-24T08:51:09;100017.38;;;18.17;100.00
25498;BME280;13406;53.380;7.226;2023-07-24T08:53:37;100056.50;;;18.42;100.00
25498;BME280;13406;53.380;7.226;2023-07-24T08:56:04;100025.78;;;18.16;100.00
25498;BME280;13406;53.380;7.226;2023-07-24T08:58:30;100041.28;;;18.36;100.00
25498;BME280;13406;53.380;7.226;2023-07-24T09:00:59;100030.69;;;18.39;100.00
25498;BME280;13406;53.380;7.226;2023-07-24T09:03:25;100029.34;;;18.42;100.00
25498;BME280;13406;53.380;7.226;2023-07-24T09:05:51;100026.09;;;18.50;100.00
25498;BME280;13406;53.380;7.226;2023-07-24T09:08:16;100003.81;;;18.27;100.00
25498;BME280;13406;53.380;7.226;2023-07-24T09:10:42;99996.22;;;18.35;100.00
25498;BME280;13406;53.380;7.226;2023-07-24T09:13:07;100020.13;;;18.33;100.00
25498;BME280;13406;53.380;7.226;2023-07-24T09:15:43;100021.47;;;18.35;100.00
25498;BME280;13406;53.380;7.226;2023-07-24T09:18:09;100019.31;;;18.32;100.00
25498;BME280;13406;53.380;7.226;2023-07-24T09:20:42;99982.34;;;18.11;100.00
25498;BME280;13406;53.380;7.226;2023-07-24T09:23:08;100008.47;;;18.37;100.00
25498;BME280;13406;53.380;7.226;2023-07-24T09:25:35;99963.63;;;18.09;100.00
25498;BME280;13406;53.380;7.226;2023-07-24T09:28:17;99965.53;;;18.03;100.00
25498;BME280;13406;53.380;7.226;2023-07-24T09:30:52;100005.44;;;18.34;100.00
25498;BME280;13406;53.380;7.226;2023-07-24T09:33:18;99972.88;;;18.34;100.00
25498;BME280;13406;53.380;7.226;2023-07-24T09:35:43;99951.44;;;18.17;100.00
25498;BME280;13406;53.380;7.226;2023-07-24T09:38:11;99980.47;;;18.42;100.00
25498;BME280;13406;53.380;7.226;2023-07-24T09:40:45;99976.13;;;18.41;100.00
25498;BME280;13406;53.380;7.226;2023-07-24T09:43:23;99976.41;;;18.49;100.00
25498;BME280;13406;53.380;7.226;2023-07-24T09:45:50;99972.34;;;18.47;100.00
25498;BME280;13406;53.380;7.226;2023-07-24T09:48:17;99935.94;;;18.22;100.00
25498;BME280;13406;53.380;7.226;2023-07-24T09:50:45;99955.75;;;18.48;100.00
25498;BME280;13406;53.380;7.226;2023-07-24T09:55:58;99943.50;;;18.71;100.00
25498;BME280;13406;53.380;7.226;2023-07-24T09:58:25;99936.50;;;18.76;100.00
25498;BME280;13406;53.380;7.226;2023-07-24T10:00:52;99921.81;;;18.82;100.00
25498;BME280;13406;53.380;7.226;2023-07-24T10:03:18;99894.09;;;18.74;100.00
25498;BME280;13406;53.380;7.226;2023-07-24T10:05:46;99897.03;;;18.93;100.00
25498;BME280;13406;53.380;7.226;2023-07-24T10:08:14;99899.13;;;19.12;100.00
25498;BME280;13406;53.380;7.226;2023-07-24T10:10:39;99849.47;;;18.96;100.00
25498;BME280;13406;53.380;7.226;2023-07-24T10:13:06;99874.03;;;19.35;100.00
25498;BME280;13406;53.380;7.226;2023-07-24T10:15:32;99861.59;;;19.24;100.00
25498;BME280;13406;53.380;7.226;2023-07-24T10:18:06;99831.13;;;19.22;100.00
25498;BME280;13406;53.380;7.226;2023-07-24T10:20:39;99835.06;;;19.50;100.00
25498;BME280;13406;53.380;7.226;2023-07-24T10:23:10;99800.19;;;19.52;100.00
25498;BME280;13406;53.380;7.226;2023-07-24T10:25:38;99800.81;;;19.83;100.00
25498;BME280;13406;53.380;7.226;2023-07-24T10:28:10;99794.41;;;19.64;100.00
25498;BME280;13406;53.380;7.226;2023-07-24T10:30:42;99731.75;;;19.45;100.00
25498;BME280;13406;53.380;7.226;2023-07-24T10:33:11;99778.03;;;19.74;100.00
25498;BME280;13406;53.380;7.226;2023-07-24T10:35:46;99773.00;;;19.92;100.00
25498;BME280;13406;53.380;7.226;2023-07-24T10:38:16;99763.75;;;20.17;100.00
25498;BME280;13406;53.380;7.226;2023-07-24T10:40:44;99748.69;;;20.00;100.00
25498;BME280;13406;53.380;7.226;2023-07-24T10:43:12;99750.66;;;20.43;100.00
25498;BME280;13406;53.380;7.226;2023-07-24T10:48:06;99743.47;;;20.76;100.00
25498;BME280;13406;53.380;7.226;2023-07-24T10:50:39;99751.41;;;20.72;100.00
25498;BME280;13406;53.380;7.226;2023-07-24T10:53:05;99732.94;;;20.69;100.00
25498;BME280;13406;53.380;7.226;2023-07-24T10:55:30;99727.16;;;20.71;100.00
25498;BME280;13406;53.380;7.226;2023-07-24T10:57:56;99706.69;;;20.73;100.00
25498;BME280;13406;53.380;7.226;2023-07-24T11:00:21;99695.06;;;20.68;100.00
25498;BME280;13406;53.380;7.226;2023-07-24T11:02:47;99655.03;;;20.44;100.00
25498;BME280;13406;53.380;7.226;2023-07-24T11:05:13;99674.81;;;20.74;100.00
25498;BME280;13406;53.380;7.226;2023-07-24T11:07:39;99640.22;;;20.56;100.00
25498;BME280;13406;53.380;7.226;2023-07-24T11:10:23;99654.03;;;20.40;100.00
25498;BME280;13406;53.380;7.226;2023-07-24T11:12:49;99666.88;;;20.35;100.00
25498;BME280;13406;53.380;7.226;2023-07-24T11:15:23;99662.38;;;20.25;100.00
25498;BME280;13406;53.380;7.226;2023-07-24T11:17:50;99663.25;;;20.20;100.00
25498;BME280;13406;53.380;7.226;2023-07-24T11:20:16;99647.34;;;20.08;100.00
25498;BME280;13406;53.380;7.226;2023-07-24T11:22:43;99635.28;;;20.15;100.00
25498;BME280;13406;53.380;7.226;2023-07-24T11:25:12;99629.84;;;20.15;100.00
25498;BME280;13406;53.380;7.226;2023-07-24T11:27:42;99625.78;;;20.12;100.00
25498;BME280;13406;53.380;7.226;2023-07-24T11:30:10;99628.81;;;19.86;100.00
25498;BME280;13406;53.380;7.226;2023-07-24T11:32:38;99633.22;;;19.82;100.00
25498;BME280;13406;53.380;7.226;2023-07-24T11:35:05;99645.00;;;19.73;100.00
25498;BME280;13406;53.380;7.226;2023-07-24T11:37:31;99636.19;;;19.57;100.00
25498;BME280;13406;53.380;7.226;2023-07-24T11:40:01;99627.16;;;19.61;100.00
25498;BME280;13406;53.380;7.226;2023-07-24T11:42:37;99628.75;;;19.68;100.00
25498;BME280;13406;53.380;7.226;2023-07-24T11:45:06;99619.28;;;19.60;100.00
25498;BME280;13406;53.380;7.226;2023-07-24T11:47:47;99590.44;;;19.35;100.00
25498;BME280;13406;53.380;7.226;2023-07-24T11:50:14;99604.91;;;19.54;100.00
25498;BME280;13406;53.380;7.226;2023-07-24T11:52:42;99616.72;;;19.74;100.00
25498;BME280;13406;53.380;7.226;2023-07-24T11:55:12;99609.75;;;19.62;100.00
25498;BME280;13406;53.380;7.226;2023-07-24T11:57:38;99598.78;;;19.43;100.00
25498;BME280;13406;53.380;7.226;2023-07-24T12:00:04;99603.59;;;19.52;100.00
25498;BME280;13406;53.380;7.226;2023-07-24T12:02:32;99602.94;;;19.36;100.00
25498;BME280;13406;53.380;7.226;2023-07-24T12:04:59;99572.59;;;18.94;100.00
25498;BME280;13406;53.380;7.226;2023-07-24T12:07:35;99641.31;;;19.29;100.00
25498;BME280;13406;53.380;7.226;2023-07-24T12:10:02;99593.66;;;18.79;100.00
25498;BME280;13406;53.380;7.226;2023-07-24T12:12:38;99674.44;;;19.02;100.00
25498;BME280;13406;53.380;7.226;2023-07-24T12:15:04;99665.44;;;19.07;100.00
25498;BME280;13406;53.380;7.226;2023-07-24T12:17:29;99651.63;;;19.32;100.00
25498;BME280;13406;53.380;7.226;2023-07-24T12:19:55;99597.59;;;19.26;100.00
25498;BME280;13406;53.380;7.226;2023-07-24T12:22:20;99605.94;;;19.58;100.00
25498;BME280;13406;53.380;7.226;2023-07-24T12:24:47;99640.84;;;20.28;100.00
25498;BME280;13406;53.380;7.226;2023-07-24T12:27:12;99606.44;;;20.32;100.00
25498;BME280;13406;53.380;7.226;2023-07-24T12:29:38;99632.66;;;20.71;100.00
25498;BME280;13406;53.380;7.226;2023-07-24T12:32:04;99626.59;;;20.13;100.00
25498;BME280;13406;53.380;7.226;2023-07-24T12:34:29;99619.19;;;20.37;100.00
25498;BME280;13406;53.380;7.226;2023-07-24T12:36:55;99606.22;;;20.48;100.00
25498;BME280;13406;53.380;7.226;2023-07-24T12:39:20;99596.56;;;20.61;100.00
25498;BME280;13406;53.380;7.226;2023-07-24T12:41:45;99573.56;;;20.48;100.00
25498;BME280;13406;53.380;7.226;2023-07-24T12:44:11;99582.72;;;20.57;100.00
25498;BME280;13406;53.380;7.226;2023-07-24T12:46:36;99558.84;;;20.30;100.00